createdAt,value
2018-06-11T00:00:28.231Z,16.60
2018-06-11T00:02:31.331Z,16.60
2018-06-11T00:04:34.436Z,16.60
2018-06-11T00:06:37.520Z,16.60
2018-06-11T00:08:41.213Z,16.60
2018-06-11T00:10:44.312Z,16.60
2018-06-11T00:12:47.394Z,16.50
2018-06-11T00:14:50.475Z,16.50
2018-06-11T00:16:53.588Z,16.50
2018-06-11T00:18:56.667Z,16.40
2018-06-11T00:20:59.750Z,16.40
2018-06-11T00:23:02.872Z,16.40
2018-06-11T00:25:06.384Z,16.40
2018-06-11T00:27:09.475Z,16.40
2018-06-11T00:29:12.581Z,16.40
2018-06-11T00:31:15.683Z,16.40
2018-06-11T00:33:18.780Z,16.40
2018-06-11T00:35:21.856Z,16.30
2018-06-11T00:37:24.953Z,16.30
2018-06-11T00:39:28.039Z,16.30
2018-06-11T00:41:31.125Z,16.30
2018-06-11T00:43:34.223Z,16.30
2018-06-11T00:45:37.337Z,16.30
2018-06-11T00:47:40.424Z,16.30
2018-06-11T00:49:43.537Z,16.20
2018-06-11T00:51:46.652Z,16.20
2018-06-11T00:53:50.300Z,16.20
2018-06-11T00:56:07.633Z,16.20
2018-06-11T00:58:10.742Z,16.10
2018-06-11T01:00:13.837Z,16.10
2018-06-11T01:02:16.912Z,16.00
2018-06-11T01:04:19.992Z,16.00
2018-06-11T01:06:23.107Z,16.00
2018-06-11T01:08:26.244Z,16.00
2018-06-11T01:10:29.359Z,16.00
2018-06-11T01:12:32.488Z,16.00
2018-06-11T01:14:35.624Z,16.00
2018-06-11T01:16:38.782Z,16.00
2018-06-11T01:18:42.277Z,16.00
2018-06-11T01:20:45.406Z,16.00
2018-06-11T01:22:48.520Z,15.90
2018-06-11T01:24:51.657Z,15.90
2018-06-11T01:26:54.780Z,15.90
2018-06-11T01:28:57.888Z,15.90
2018-06-11T01:33:03.976Z,15.80
2018-06-11T01:35:07.096Z,15.80
2018-06-11T01:37:10.238Z,15.80
2018-06-11T01:39:13.348Z,15.80
2018-06-11T01:41:16.480Z,15.80
2018-06-11T01:43:19.596Z,15.80
2018-06-11T01:47:25.632Z,15.80
2018-06-11T01:49:28.728Z,15.80
2018-06-11T01:51:31.833Z,15.80
2018-06-11T01:53:34.941Z,15.80
2018-06-11T01:55:38.057Z,15.80
2018-06-11T01:57:41.164Z,15.70
2018-06-11T01:59:44.248Z,15.70
2018-06-11T02:03:50.216Z,15.70
2018-06-11T02:05:53.385Z,15.70
2018-06-11T02:07:56.512Z,15.70
2018-06-11T02:09:59.640Z,15.70
2018-06-11T02:12:02.742Z,15.70
2018-06-11T02:14:05.903Z,15.70
2018-06-11T02:16:09.012Z,15.70
2018-06-11T02:18:12.131Z,15.70
2018-06-11T02:20:15.236Z,15.70
2018-06-11T02:22:18.334Z,15.80
2018-06-11T02:24:21.416Z,15.80
2018-06-11T02:26:24.513Z,15.80
2018-06-11T02:28:27.604Z,15.80
2018-06-11T02:30:30.686Z,15.90
2018-06-11T02:32:33.887Z,16.00
2018-06-11T02:34:36.982Z,16.10
2018-06-11T02:36:40.096Z,16.10
2018-06-11T02:38:43.214Z,16.10
2018-06-11T02:40:46.300Z,16.10
2018-06-11T02:42:49.416Z,16.20
2018-06-11T02:44:52.557Z,16.20
2018-06-11T02:46:55.688Z,16.20
2018-06-11T02:48:58.801Z,16.20
2018-06-11T02:53:05.427Z,16.20
2018-06-11T02:55:08.548Z,16.20
2018-06-11T02:57:11.684Z,16.20
2018-06-11T02:59:14.808Z,16.20
2018-06-11T03:01:17.928Z,16.20
2018-06-11T03:03:21.052Z,16.30
2018-06-11T03:05:24.172Z,16.20
2018-06-11T03:07:27.311Z,16.20
2018-06-11T03:09:30.425Z,16.30
2018-06-11T03:11:33.576Z,16.50
2018-06-11T03:13:36.672Z,16.50
2018-06-11T03:15:40.056Z,16.60
2018-06-11T03:17:43.182Z,16.60
2018-06-11T03:19:46.296Z,16.60
2018-06-11T03:23:52.367Z,16.50
2018-06-11T03:25:55.501Z,16.40
2018-06-11T03:27:58.615Z,16.40
2018-06-11T03:30:01.776Z,16.40
2018-06-11T03:32:05.154Z,16.30
2018-06-11T03:34:08.429Z,16.30
2018-06-11T03:36:11.552Z,16.30
2018-06-11T03:38:14.648Z,16.40
2018-06-11T03:40:17.799Z,16.40
2018-06-11T03:42:20.921Z,16.30
2018-06-11T03:44:24.068Z,16.20
2018-06-11T03:46:27.204Z,16.20
2018-06-11T03:48:30.332Z,16.20
2018-06-11T03:50:33.452Z,16.20
2018-06-11T03:52:36.637Z,16.20
2018-06-11T03:54:39.767Z,16.20
2018-06-11T03:56:42.895Z,16.30
2018-06-11T03:58:45.996Z,16.40
2018-06-11T04:00:49.416Z,16.40
2018-06-11T04:02:52.529Z,16.30
2018-06-11T04:04:55.652Z,16.30
2018-06-11T04:06:58.764Z,16.40
2018-06-11T04:09:01.887Z,16.30
2018-06-11T04:11:05.105Z,16.20
2018-06-11T04:13:08.172Z,16.10
2018-06-11T04:15:11.325Z,16.10
2018-06-11T04:17:14.440Z,16.10
2018-06-11T04:19:17.567Z,16.00
2018-06-11T04:21:20.692Z,16.20
2018-06-11T04:23:23.812Z,16.20
2018-06-11T04:25:26.932Z,16.20
2018-06-11T04:27:30.056Z,16.30
2018-06-11T04:29:34.052Z,16.40
2018-06-11T04:33:40.224Z,16.40
2018-06-11T04:35:43.323Z,16.30
2018-06-11T04:37:46.536Z,16.40
2018-06-11T04:39:49.724Z,16.50
2018-06-11T04:41:52.843Z,16.50
2018-06-11T04:43:55.925Z,16.50
2018-06-11T04:45:59.024Z,16.60
2018-06-11T04:48:02.153Z,16.60
2018-06-11T04:50:05.256Z,16.70
2018-06-11T04:52:08.352Z,16.70
2018-06-11T04:54:11.442Z,16.70
2018-06-11T04:56:14.583Z,16.70
2018-06-11T04:58:17.704Z,16.70
2018-06-11T05:00:20.788Z,16.60
2018-06-11T05:02:23.956Z,16.50
2018-06-11T05:04:27.028Z,16.60
2018-06-11T05:06:30.133Z,16.80
2018-06-11T05:08:33.216Z,16.80
2018-06-11T05:10:36.310Z,16.90
2018-06-11T05:12:39.388Z,17.10
2018-06-11T05:14:42.480Z,17.20
2018-06-11T05:16:45.649Z,17.20
2018-06-11T05:18:48.736Z,17.10
2018-06-11T05:20:51.916Z,17.00
2018-06-11T05:22:55.027Z,17.00
2018-06-11T05:24:58.435Z,16.90
2018-06-11T05:27:01.563Z,16.70
2018-06-11T05:29:04.832Z,16.80
2018-06-11T05:31:07.927Z,16.80
2018-06-11T05:33:11.020Z,16.70
2018-06-11T05:35:14.118Z,16.80
2018-06-11T05:37:17.216Z,16.80
2018-06-11T05:39:20.331Z,16.80
2018-06-11T05:41:23.436Z,16.90
2018-06-11T05:43:26.558Z,17.00
2018-06-11T05:45:29.778Z,17.20
2018-06-11T05:47:32.884Z,17.30
2018-06-11T05:49:35.992Z,17.30
2018-06-11T05:51:39.111Z,17.10
2018-06-11T05:53:42.309Z,17.00
2018-06-11T05:55:45.432Z,17.20
2018-06-11T05:57:48.568Z,17.40
2018-06-11T05:59:51.797Z,17.40
2018-06-11T06:01:54.916Z,17.40
2018-06-11T06:03:58.036Z,17.50
2018-06-11T06:06:01.145Z,17.50
2018-06-11T06:08:04.248Z,17.60
2018-06-11T06:10:07.353Z,17.80
2018-06-11T06:12:10.460Z,17.60
2018-06-11T06:14:13.645Z,17.60
2018-06-11T06:16:16.708Z,17.70
2018-06-11T06:18:19.816Z,17.80
2018-06-11T06:20:22.944Z,17.90
2018-06-11T06:22:26.060Z,17.90
2018-06-11T06:24:29.172Z,18.20
2018-06-11T06:26:32.316Z,18.20
2018-06-11T06:28:35.428Z,18.00
2018-06-11T06:32:41.492Z,18.00
2018-06-11T06:34:44.724Z,17.90
2018-06-11T06:36:47.776Z,17.80
2018-06-11T06:38:50.887Z,17.90
2018-06-11T06:40:54.043Z,17.90
2018-06-11T06:42:57.244Z,18.00
2018-06-11T06:45:00.344Z,18.20
2018-06-11T06:47:03.618Z,18.40
2018-06-11T06:49:06.741Z,18.50
2018-06-11T06:51:09.882Z,18.70
2018-06-11T06:53:13.024Z,19.00
2018-06-11T06:55:16.185Z,19.20
2018-06-11T06:57:19.300Z,19.40
2018-06-11T06:59:22.439Z,19.60
2018-06-11T07:01:25.569Z,19.70
2018-06-11T07:03:28.696Z,19.80
2018-06-11T07:05:31.848Z,20.00
2018-06-11T07:07:34.985Z,20.30
2018-06-11T07:09:38.158Z,20.50
2018-06-11T07:11:41.284Z,20.80
2018-06-11T07:13:44.394Z,21.10
2018-06-11T07:15:47.500Z,21.10
2018-06-11T07:17:50.641Z,21.10
2018-06-11T07:19:53.765Z,21.20
2018-06-11T07:21:56.885Z,21.00
2018-06-11T07:23:59.990Z,20.80
2018-06-11T07:26:03.111Z,21.00
2018-06-11T07:28:06.542Z,21.30
2018-06-11T07:30:10.000Z,21.80
2018-06-11T07:32:13.113Z,22.10
2018-06-11T07:34:16.906Z,22.10
2018-06-11T07:36:20.773Z,22.10
2018-06-11T07:38:23.876Z,22.20
2018-06-11T07:40:26.992Z,22.10
2018-06-11T07:42:30.107Z,21.90
2018-06-11T07:44:33.189Z,21.90
2018-06-11T07:46:36.366Z,22.10
2018-06-11T07:48:39.472Z,22.10
2018-06-11T07:50:42.636Z,22.40
2018-06-11T07:52:45.841Z,22.60
2018-06-11T07:54:48.955Z,22.40
2018-06-11T07:56:52.225Z,22.50
2018-06-11T07:58:55.455Z,22.70
2018-06-11T08:00:58.771Z,22.80
2018-06-11T08:03:01.883Z,22.70
2018-06-11T08:05:04.985Z,22.20
2018-06-11T08:07:08.085Z,21.90
2018-06-11T08:09:11.223Z,21.80
2018-06-11T08:11:14.344Z,21.60
2018-06-11T08:13:17.436Z,21.30
2018-06-11T08:15:20.504Z,21.40
2018-06-11T08:17:23.598Z,21.50
2018-06-11T08:19:26.684Z,21.30
2018-06-11T08:21:29.783Z,21.00
2018-06-11T08:23:32.880Z,20.90
2018-06-11T08:25:36.037Z,20.90
2018-06-11T08:27:39.120Z,21.10
2018-06-11T08:29:42.242Z,21.00
2018-06-11T08:33:48.264Z,21.10
2018-06-11T08:35:51.345Z,21.20
2018-06-11T08:37:54.431Z,21.20
2018-06-11T08:39:57.538Z,21.30
2018-06-11T08:42:00.617Z,21.50
2018-06-11T08:44:04.468Z,21.40
2018-06-11T08:46:07.676Z,21.40
2018-06-11T08:48:10.783Z,21.40
2018-06-11T08:50:13.893Z,21.40
2018-06-11T08:52:16.988Z,21.20
2018-06-11T08:54:20.100Z,21.30
2018-06-11T08:56:23.276Z,21.30
2018-06-11T08:58:26.387Z,21.30
2018-06-11T09:00:29.505Z,21.20
2018-06-11T09:02:32.602Z,21.30
2018-06-11T09:04:35.711Z,21.30
2018-06-11T09:06:38.970Z,21.10
2018-06-11T09:08:42.055Z,21.20
2018-06-11T09:12:48.026Z,21.50
2018-06-11T09:14:51.176Z,21.60
2018-06-11T09:16:54.268Z,21.40
2018-06-11T09:18:57.352Z,21.40
2018-06-11T09:21:00.964Z,21.40
2018-06-11T09:23:04.060Z,21.40
2018-06-11T09:25:07.215Z,21.50
2018-06-11T09:27:10.260Z,21.80
2018-06-11T09:29:13.348Z,22.00
2018-06-11T09:31:16.444Z,22.30
2018-06-11T09:33:19.565Z,22.30
2018-06-11T09:35:22.717Z,22.50
2018-06-11T09:37:25.920Z,22.60
2018-06-11T09:39:29.004Z,22.60
2018-06-11T09:41:32.117Z,22.70
2018-06-11T09:43:35.224Z,22.70
2018-06-11T09:47:41.312Z,22.90
2018-06-11T09:49:44.615Z,23.10
2018-06-11T09:51:47.828Z,23.00
2018-06-11T09:53:51.000Z,22.70
2018-06-11T09:55:54.120Z,22.40
2018-06-11T09:57:57.217Z,22.40
2018-06-11T10:00:01.211Z,22.60
2018-06-11T10:02:04.367Z,22.80
2018-06-11T10:04:07.588Z,23.00
2018-06-11T10:06:10.752Z,23.40
2018-06-11T10:08:13.860Z,23.90
2018-06-11T10:10:16.952Z,24.10
2018-06-11T10:14:23.036Z,24.50
2018-06-11T10:16:26.184Z,24.70
2018-06-11T10:18:29.300Z,24.60
2018-06-11T10:20:32.544Z,24.60
2018-06-11T10:22:35.655Z,24.80
2018-06-11T10:24:41.855Z,24.80
2018-06-11T10:26:44.973Z,24.70
2018-06-11T10:28:48.078Z,24.60
2018-06-11T10:30:51.175Z,24.40
2018-06-11T10:34:57.187Z,24.10
2018-06-11T10:37:00.296Z,23.80
2018-06-11T10:39:04.498Z,23.60
2018-06-11T10:41:07.568Z,23.50
2018-06-11T10:43:10.740Z,23.70
2018-06-11T10:45:13.943Z,23.90
2018-06-11T10:47:17.020Z,24.00
2018-06-11T10:49:20.171Z,24.10
2018-06-11T10:53:26.268Z,24.10
2018-06-11T10:55:29.389Z,24.20
2018-06-11T10:57:32.496Z,24.20
2018-06-11T10:59:35.600Z,24.30
2018-06-11T11:01:38.679Z,24.30
2018-06-11T11:03:41.777Z,24.60
2018-06-11T11:05:44.864Z,24.80
2018-06-11T11:07:47.960Z,24.70
2018-06-11T11:09:51.058Z,24.70
2018-06-11T11:11:54.141Z,25.00
2018-06-11T11:13:57.228Z,25.00
2018-06-11T11:16:00.311Z,24.70
2018-06-11T11:18:03.419Z,24.50
2018-06-11T11:20:06.496Z,24.50
2018-06-11T11:22:09.593Z,24.30
2018-06-11T11:24:12.688Z,24.50
2018-06-11T11:26:15.784Z,24.80
2018-06-11T11:28:18.900Z,24.70
2018-06-11T11:30:21.982Z,24.50
2018-06-11T11:32:25.079Z,24.20
2018-06-11T11:34:28.189Z,24.20
2018-06-11T11:36:31.249Z,24.30
2018-06-11T11:38:34.340Z,24.10
2018-06-11T11:40:37.421Z,24.10
2018-06-11T11:42:40.520Z,24.30
2018-06-11T11:44:43.624Z,24.30
2018-06-11T11:46:46.716Z,24.40
2018-06-11T11:48:49.795Z,24.30
2018-06-11T11:50:52.884Z,24.10
2018-06-11T11:52:56.056Z,24.00
2018-06-11T11:54:59.164Z,24.00
2018-06-11T11:57:02.940Z,24.00
2018-06-11T11:59:06.052Z,24.00
2018-06-11T12:01:09.125Z,24.20
2018-06-11T12:03:12.192Z,24.20
2018-06-11T12:05:15.297Z,24.20
2018-06-11T12:07:18.380Z,24.30
2018-06-11T12:09:21.498Z,24.50
2018-06-11T12:13:27.548Z,24.80
2018-06-11T12:15:30.636Z,24.80
2018-06-11T12:17:33.783Z,24.70
2018-06-11T12:19:36.876Z,24.70
2018-06-11T12:21:40.509Z,24.40
2018-06-11T12:23:43.592Z,24.40
2018-06-11T12:25:46.692Z,24.30
2018-06-11T12:27:49.804Z,24.20
2018-06-11T12:29:53.592Z,24.10
2018-06-11T12:31:56.684Z,23.90
2018-06-11T12:33:59.769Z,23.70
2018-06-11T12:36:02.844Z,23.70
2018-06-11T12:38:06.962Z,23.80
2018-06-11T12:40:10.056Z,23.90
2018-06-11T12:42:13.164Z,24.00
2018-06-11T12:44:17.035Z,24.00
2018-06-11T12:46:20.416Z,24.00
2018-06-11T12:48:23.520Z,23.90
2018-06-11T12:50:26.644Z,23.90
2018-06-11T12:52:29.772Z,24.00
2018-06-11T12:54:32.897Z,24.00
2018-06-11T12:56:36.016Z,23.90
2018-06-11T12:58:39.118Z,24.00
2018-06-11T13:00:42.225Z,23.90
2018-06-11T13:02:45.376Z,23.90
2018-06-11T13:04:48.484Z,23.90
2018-06-11T13:06:51.612Z,24.00
2018-06-11T13:08:54.718Z,24.20
2018-06-11T13:10:57.847Z,24.30
2018-06-11T13:13:00.948Z,24.20
2018-06-11T13:15:04.329Z,24.10
2018-06-11T13:17:07.473Z,24.20
2018-06-11T13:19:10.585Z,24.10
2018-06-11T13:21:13.686Z,24.00
2018-06-11T13:23:16.812Z,24.00
2018-06-11T13:25:19.921Z,24.00
2018-06-11T13:27:23.045Z,23.80
2018-06-11T13:29:26.144Z,23.90
2018-06-11T13:31:29.279Z,24.10
2018-06-11T13:33:32.408Z,24.10
2018-06-11T13:35:35.532Z,24.00
2018-06-11T13:37:38.650Z,24.00
2018-06-11T13:39:41.784Z,24.00
2018-06-11T13:41:44.900Z,24.10
2018-06-11T13:43:48.027Z,24.20
2018-06-11T13:45:51.132Z,24.30
2018-06-11T13:47:54.236Z,24.40
2018-06-11T13:49:57.352Z,24.40
2018-06-11T13:52:00.480Z,24.50
2018-06-11T13:54:03.589Z,24.50
2018-06-11T13:56:06.695Z,24.60
2018-06-11T13:58:09.850Z,24.50
2018-06-11T14:00:12.952Z,24.40
2018-06-11T14:02:16.068Z,24.40
2018-06-11T14:04:19.730Z,24.50
2018-06-11T14:06:24.218Z,24.60
2018-06-11T14:08:27.293Z,24.80
2018-06-11T14:10:30.605Z,24.80
2018-06-11T14:12:33.853Z,24.70
2018-06-11T14:14:36.980Z,24.70
2018-06-11T14:16:40.092Z,24.70
2018-06-11T14:18:43.208Z,24.80
2018-06-11T14:20:46.328Z,24.70
2018-06-11T14:22:49.431Z,24.60
2018-06-11T14:24:52.562Z,24.70
2018-06-11T14:26:55.685Z,24.60
2018-06-11T14:28:58.804Z,24.60
2018-06-11T14:31:01.908Z,24.70
2018-06-11T14:33:05.012Z,24.80
2018-06-11T14:35:08.137Z,25.00
2018-06-11T14:37:11.252Z,25.20
2018-06-11T14:39:14.385Z,25.10
2018-06-11T14:41:17.493Z,25.30
2018-06-11T14:43:20.719Z,25.40
2018-06-11T14:45:23.803Z,25.50
2018-06-11T14:47:26.896Z,25.50
2018-06-11T14:53:35.743Z,25.90
2018-06-11T14:55:38.992Z,26.00
2018-06-11T14:57:42.112Z,25.90
2018-06-11T14:59:45.347Z,26.10
2018-06-11T15:01:48.816Z,26.00
2018-06-11T15:03:51.894Z,26.00
2018-06-11T15:05:54.988Z,25.90
2018-06-11T15:07:58.082Z,26.10
2018-06-11T15:10:01.174Z,26.20
2018-06-11T15:12:04.375Z,26.40
2018-06-11T15:14:07.460Z,26.30
2018-06-11T15:16:11.336Z,26.20
2018-06-11T15:18:14.413Z,26.30
2018-06-11T15:20:18.440Z,26.70
2018-06-11T15:22:21.553Z,27.10
2018-06-11T15:24:24.658Z,27.40
2018-06-11T15:26:27.759Z,27.30
2018-06-11T15:28:30.874Z,27.00
2018-06-11T15:30:33.982Z,26.90
2018-06-11T15:32:37.156Z,27.00
2018-06-11T15:34:40.260Z,27.00
2018-06-11T15:36:43.368Z,27.00
2018-06-11T15:38:47.450Z,26.90
2018-06-11T15:40:50.559Z,26.90
2018-06-11T15:42:53.663Z,26.90
2018-06-11T15:49:02.552Z,26.70
2018-06-11T15:51:05.727Z,26.80
2018-06-11T15:53:08.848Z,26.80
2018-06-11T15:55:11.964Z,26.80
2018-06-11T15:57:15.429Z,26.70
2018-06-11T15:59:18.554Z,26.50
2018-06-11T16:03:24.608Z,26.10
2018-06-11T16:05:27.741Z,26.00
2018-06-11T16:07:30.858Z,25.90
2018-06-11T16:09:33.963Z,25.60
2018-06-11T16:13:40.052Z,25.80
2018-06-11T16:15:43.160Z,25.70
2018-06-11T16:17:46.280Z,25.80
2018-06-11T16:19:49.399Z,25.80
2018-06-11T16:21:52.581Z,25.70
2018-06-11T16:23:55.700Z,25.60
2018-06-11T16:25:59.036Z,25.40
2018-06-11T16:28:03.030Z,25.50
2018-06-11T16:30:06.191Z,25.60
2018-06-11T16:32:09.420Z,25.60
2018-06-11T16:34:12.923Z,25.60
2018-06-11T16:36:16.504Z,25.60
2018-06-11T16:38:19.956Z,25.40
2018-06-11T16:40:23.277Z,25.30
2018-06-11T16:42:26.377Z,25.30
2018-06-11T16:44:29.464Z,25.30
2018-06-11T16:46:32.571Z,25.30
2018-06-11T16:48:35.671Z,25.30
2018-06-11T16:50:38.872Z,25.30
2018-06-11T16:52:41.961Z,25.20
2018-06-11T16:54:45.091Z,25.10
2018-06-11T16:56:48.431Z,25.00
2018-06-11T16:58:51.544Z,24.80
2018-06-11T17:00:54.639Z,24.60
2018-06-11T17:02:57.743Z,24.70
2018-06-11T17:05:00.832Z,24.80
2018-06-11T17:07:03.952Z,24.80
2018-06-11T17:09:08.310Z,24.80
2018-06-11T17:11:11.389Z,24.70
2018-06-11T17:13:14.464Z,24.60
2018-06-11T17:15:17.551Z,24.70
2018-06-11T17:17:20.642Z,24.80
2018-06-11T17:19:23.736Z,25.00
2018-06-11T17:21:26.820Z,24.90
2018-06-11T17:23:29.903Z,24.80
2018-06-11T17:25:33.051Z,24.70
2018-06-11T17:27:36.168Z,24.70
2018-06-11T17:29:39.423Z,24.60
2018-06-11T17:33:45.447Z,24.40
2018-06-11T17:35:48.564Z,24.30
2018-06-11T17:37:51.779Z,24.40
2018-06-11T17:39:54.867Z,24.30
2018-06-11T17:41:58.015Z,24.20
2018-06-11T17:44:01.104Z,24.00
2018-06-11T17:46:04.396Z,24.00
2018-06-11T17:50:10.433Z,24.00
2018-06-11T17:52:13.512Z,24.00
2018-06-11T17:54:16.594Z,23.90
2018-06-11T17:56:19.764Z,23.80
2018-06-11T17:58:22.841Z,23.90
2018-06-11T18:00:25.996Z,23.80
2018-06-11T18:02:29.040Z,23.80
2018-06-11T18:04:32.147Z,23.70
2018-06-11T18:08:38.152Z,23.90
2018-06-11T18:10:41.224Z,24.10
2018-06-11T18:12:44.408Z,24.00
2018-06-11T18:14:48.168Z,24.00
2018-06-11T18:16:51.264Z,24.00
2018-06-11T18:18:54.348Z,23.90
2018-06-11T18:20:57.523Z,23.80
2018-06-11T18:23:00.770Z,23.70
2018-06-11T18:25:04.044Z,23.50
2018-06-11T18:27:08.123Z,23.40
2018-06-11T18:29:11.204Z,23.30
2018-06-11T18:31:14.784Z,23.20
2018-06-11T18:33:17.856Z,23.20
2018-06-11T18:35:20.945Z,23.10
2018-06-11T18:37:24.116Z,22.90
2018-06-11T18:39:27.296Z,22.90
2018-06-11T18:41:33.912Z,22.80
2018-06-11T18:43:37.749Z,22.70
2018-06-11T18:45:40.878Z,22.70
2018-06-11T18:47:43.964Z,22.60
2018-06-11T18:49:47.036Z,22.50
2018-06-11T18:51:50.140Z,22.50
2018-06-11T18:53:53.216Z,22.40
2018-06-11T18:55:56.296Z,22.40
2018-06-11T18:57:59.395Z,22.50
2018-06-11T19:00:02.554Z,22.40
2018-06-11T19:02:05.643Z,22.30
2018-06-11T19:04:08.811Z,22.30
2018-06-11T19:06:11.921Z,22.20
2018-06-11T19:08:15.023Z,22.20
2018-06-11T19:10:18.145Z,22.20
2018-06-11T19:12:22.340Z,22.10
2018-06-11T19:14:25.424Z,22.10
2018-06-11T19:16:28.776Z,22.00
2018-06-11T19:18:32.073Z,22.00
2018-06-11T19:20:35.233Z,22.00
2018-06-11T19:22:38.324Z,22.00
2018-06-11T19:24:41.475Z,21.90
2018-06-11T19:26:44.551Z,21.90
2018-06-11T19:28:47.652Z,21.90
2018-06-11T19:30:50.848Z,21.90
2018-06-11T19:32:53.965Z,21.80
2018-06-11T19:34:57.102Z,21.80
2018-06-11T19:37:00.145Z,21.70
2018-06-11T19:39:03.390Z,21.70
2018-06-11T19:41:06.626Z,21.60
2018-06-11T19:43:10.200Z,21.60
2018-06-11T19:45:13.560Z,21.60
2018-06-11T19:47:17.033Z,21.50
2018-06-11T19:49:20.168Z,21.50
2018-06-11T19:51:23.290Z,21.50
2018-06-11T19:53:26.376Z,21.40
2018-06-11T19:55:29.468Z,21.30
2018-06-11T19:57:32.565Z,21.30
2018-06-11T19:59:35.653Z,21.20
2018-06-11T20:01:38.736Z,21.20
2018-06-11T20:05:44.876Z,21.20
2018-06-11T20:07:48.002Z,21.20
2018-06-11T20:09:51.092Z,21.10
2018-06-11T20:11:54.200Z,21.10
2018-06-11T20:13:57.383Z,21.00
2018-06-11T20:16:00.468Z,21.00
2018-06-11T20:18:03.736Z,20.90
2018-06-11T20:20:06.956Z,20.80
2018-06-11T20:22:10.055Z,20.70
2018-06-11T20:24:13.139Z,20.60
2018-06-11T20:26:16.261Z,20.60
2018-06-11T20:28:19.361Z,20.50
2018-06-11T20:30:22.451Z,20.50
2018-06-11T20:32:25.685Z,20.40
2018-06-11T20:34:28.836Z,20.30
2018-06-11T20:36:31.944Z,20.20
2018-06-11T20:38:35.927Z,20.10
2018-06-11T20:40:39.026Z,20.10
2018-06-11T20:42:42.144Z,20.00
2018-06-11T20:44:45.291Z,20.00
2018-06-11T20:46:48.324Z,19.90
2018-06-11T20:48:51.403Z,19.80
2018-06-11T20:50:54.524Z,19.70
2018-06-11T20:52:57.625Z,19.60
2018-06-11T20:55:00.716Z,19.50
2018-06-11T20:57:03.812Z,19.50
2018-06-11T20:59:06.900Z,19.50
2018-06-11T21:01:10.017Z,19.40
2018-06-11T21:05:15.991Z,19.20
2018-06-11T21:07:19.103Z,19.20
2018-06-11T21:09:22.184Z,19.00
2018-06-11T21:11:25.287Z,19.00
2018-06-11T21:13:28.464Z,18.90
2018-06-11T21:15:31.540Z,18.90
2018-06-11T21:17:34.659Z,18.90
2018-06-11T21:19:37.760Z,18.90
2018-06-11T21:21:44.838Z,18.80
2018-06-11T21:23:47.995Z,18.80
2018-06-11T21:25:51.101Z,18.70
2018-06-11T21:27:54.199Z,18.70
2018-06-11T21:29:57.308Z,18.70
2018-06-11T21:32:02.053Z,18.60
2018-06-11T21:34:05.140Z,18.50
2018-06-11T21:36:08.221Z,18.40
2018-06-11T21:38:11.316Z,18.40
2018-06-11T21:40:14.392Z,18.50
2018-06-11T21:42:17.477Z,18.30
2018-06-11T21:44:20.598Z,18.20
2018-06-11T21:46:23.706Z,18.20
2018-06-11T21:48:26.808Z,18.20
2018-06-11T21:50:29.900Z,18.10
2018-06-11T21:52:33.618Z,18.10
2018-06-11T21:54:36.712Z,18.10
2018-06-11T21:56:39.791Z,18.00
2018-06-11T21:58:42.888Z,17.90
2018-06-11T22:00:45.992Z,17.70
2018-06-11T22:02:49.100Z,17.70
2018-06-11T22:04:52.998Z,17.70
2018-06-11T22:06:56.088Z,17.60
2018-06-11T22:08:59.180Z,17.50
2018-06-11T22:11:02.262Z,17.50
2018-06-11T22:13:05.395Z,17.50
2018-06-11T22:15:08.468Z,17.40
2018-06-11T22:17:12.444Z,17.40
2018-06-11T22:19:15.562Z,17.40
2018-06-11T22:21:18.759Z,17.40
2018-06-11T22:23:21.864Z,17.30
2018-06-11T22:25:24.987Z,17.30
2018-06-11T22:27:28.092Z,17.30
2018-06-11T22:29:31.209Z,17.30
2018-06-11T22:31:34.308Z,17.20
2018-06-11T22:33:37.414Z,17.20
2018-06-11T22:35:40.499Z,17.20
2018-06-11T22:37:43.583Z,17.20
2018-06-11T22:39:46.694Z,17.10
2018-06-11T22:41:49.804Z,17.10
2018-06-11T22:43:52.931Z,17.10
2018-06-11T22:45:56.053Z,17.10
2018-06-11T22:47:59.154Z,17.00
2018-06-11T22:50:02.280Z,17.00
2018-06-11T22:52:05.387Z,17.00
2018-06-11T22:54:08.517Z,17.00
2018-06-11T22:56:11.624Z,17.00
2018-06-11T22:58:14.732Z,17.00
2018-06-11T23:00:23.813Z,16.90
2018-06-11T23:02:26.937Z,16.90
2018-06-11T23:04:30.037Z,16.90
2018-06-11T23:06:33.178Z,16.90
2018-06-11T23:08:36.284Z,16.90
2018-06-11T23:10:39.396Z,16.90
2018-06-11T23:12:42.510Z,16.90
2018-06-11T23:14:45.629Z,16.90
2018-06-11T23:16:48.828Z,16.90
2018-06-11T23:18:51.964Z,16.90
2018-06-11T23:20:55.072Z,16.90
2018-06-11T23:22:58.184Z,16.90
2018-06-11T23:25:01.320Z,16.80
2018-06-11T23:27:04.425Z,16.70
2018-06-11T23:29:07.541Z,16.70
2018-06-11T23:31:10.660Z,16.70
2018-06-11T23:33:13.776Z,16.80
2018-06-11T23:35:16.903Z,16.70
2018-06-11T23:37:20.005Z,16.60
2018-06-11T23:39:23.112Z,16.50
2018-06-11T23:43:29.112Z,16.50
2018-06-11T23:45:32.244Z,16.50
2018-06-11T23:47:35.385Z,16.50
2018-06-11T23:49:38.510Z,16.40
2018-06-11T23:51:41.628Z,16.50
2018-06-11T23:53:44.737Z,16.50
2018-06-11T23:55:47.883Z,16.50
2018-06-11T23:57:51.001Z,16.50
2018-06-11T23:59:54.120Z,16.40
